Colorado AWOS List, Phone Numbers, Maps

USA |  
| Search AWOS

Rocky Mountain States: Montana | Wyoming | Colorado | New Mexico

Complete weather reports: Colorado

Legend: KFNL = METAR available Follow your local AWOS on AV Mobile = METAR available on AV Mobile
Station Colorado Location Frequency Phone
KAKOFAA ID AKO, ASOS, KAKO 200953Z AUTO 25008KT 10SM CLR 06/03 A3001 RMK AO2 SLP139 T00560028 Follow KAKO on AV Mobile COLORADO PLAINS REGIONAL 135.475 970-345-2320
KALSFAA ID ALS, ASOS, KALS 200952Z AUTO 13006KT 10SM BKN055 OVC075 08/03 A3014 Follow KALS on AV Mobile SAN LUIS VALLEY REGIONAL 135.175 719-589-5669
KASEFAA ID ASE, ASOS, KASE 200953Z AUTO 17005KT 10SM BKN037 03/M01 A3017 Follow KASE on AV Mobile ASPEN-PITKIN COUNTY AIRPORT 120.400 970-925-9168
KBKFFAA ID BKF, KBKF 200955Z 18007KT 10SM SCT120 BKN200 06/05 A3004 Follow KBKF on AV Mobile Aurora, Buckley Air Force Base Airport
K7BMFAA ID 7BM, AWOS-3, K7BM 201035Z AUTO 00000KT 10SM CLR 03/00 A3022 RMK AO2 Follow K7BM on AV Mobile Cottonwood Pass 132.050 303-512-4919
KBDUFAA ID BDU, AWOS-3, KBDU 201036Z AUTO 00000KT 10SM CLR 07/06 A3003 RMK AO2 Follow KBDU on AV Mobile Boulder Municipal Airport 118.825 303-541-9540
KAEJFAA ID AEJ, AWOS-3, KAEJ 201035Z AUTO 28008KT 10SM CLR 03/01 A3017 RMK AO2 T00280010 Follow KAEJ on AV Mobile Central Colorado Regional Airport 132.925 719-395-2599
KITRFAA ID ITR, ASOS, KITR 200953Z AUTO 04007KT 7SM CLR 08/07 A2999 RMK AO2 SLP124 T00830067 Follow KITR on AV Mobile Kit Carson County Airport 135.225 719-346-7036
K1V6FAA ID 1V6, AWOS-3, K1V6 201035Z AUTO 27014G20KT 10SM CLR 11/05 A3004 RMK AO2 Follow K1V6 on AV Mobile CANON CITY 120.025
KAFFFAA ID AFF, KAFF 200958Z AUTO 36002KT 10SM SCT120 05/02 A3008 RMK AO2 SLP140 T00530023 Follow KAFF on AV Mobile Air Force Academy
KCOSFAA ID COS, ASOS, KCOS 200954Z 34008KT 10SM SCT090 BKN120 BKN220 10/02 A3006 Follow KCOS on AV Mobile COLORADO SPRINGS MUNI 125.000 719-637-9696
KFLYFAA ID FLY, AWOS-3PT, KFLY 201029Z AUTO 32007KT 10SM OVC110 08/00 A3009 RMK AO2 T00790001 Follow KFLY on AV Mobile Meadowlake Airport, Peyton, CO 118.450 719-683-5371
KCCUFAA ID CCU, AWOS-3, KCCU 201036Z AUTO 26012KT 10SM SCT002 SCT010 OVC021 01/M01 A3031 RMK AO2 Follow KCCU on AV Mobile Copper Mountain, Red Cliff Pass 118.075 970-968-1715
KCEZFAA ID CEZ, ASOS, KCEZ 200953Z AUTO 11005KT 10SM CLR 03/00 A3013 RMK AO2 SLP163 T00280000 Follow KCEZ on AV Mobile CORTEZ MONTEZUMA COUNTY AIRPORT 135.625 970-564-0193
KCAGFAA ID CAG, ASOS, KCAG 200953Z AUTO 00000KT 10SM CLR 01/00 A3014 Follow KCAG on AV Mobile CRAIG MOFFAT AIRPORT 135.425 970-824-2373
KAJZFAA ID AJZ, AWOS-3, KAJZ 201035Z AUTO 05005KT 10SM CLR 07/04 A3013 RMK AO2 T00670036 Follow KAJZ on AV Mobile Blake Field Airport 134.000 970-874-3251
KDNRICAO ID KDNR Denver / Stapleton International, Co.
KAPAFAA ID APA, ASOS, KAPA 200953Z 23008KT 10SM FEW100 SCT200 08/03 A3005 RMK AO2 SLP140 T00830033 Follow KAPA on AV Mobile DENVER CENTENNIAL AIRPORT 120.300 303-706-9098
KDENFAA ID DEN, ASOS, KDEN 200953Z 21012KT 10SM FEW060 SCT120 BKN220 09/05 A3003 Follow KDEN on AV Mobile DENVER INTERNATIONAL AIRPORT 125.600 303-342-0838
KFTGFAA ID FTG, AWOS-3, KFTG 191947Z 08012KT 20SM SCT075 OVC110 19/04 A3007 Follow KFTG on AV Mobile Front Range Airport 119.025 303-261-9104
KBJCFAA ID BJC, AWOS-3, KBJC 201035Z AUTO 34007KT 10SM CLR 08/04 A3003 Follow KBJC on AV Mobile Rocky Mountain Metro Airport 126.250 720-887-8067
K4V5ICAO ID K4V5 Durango Aviation Weather Reporting Station
KDROFAA ID DRO, ASOS, KDRO 200953Z AUTO 00000KT 10SM CLR 03/01 A3013 RMK AO2 SLP165 T00330006 Follow KDRO on AV Mobile DURANGO-LA PLATA COUNTY AIRPORT 120.625 970-259-3579
KEGEFAA ID EGE, AWOS-3, KEGE 201035Z AUTO 07004KT 10SM OVC070 04/03 A3018 Follow KEGE on AV Mobile Eagle County Regional 135.575 970-524-7386
CO90FAA ID CO90, ASOS, K2V5 201105Z AUTO 25004KT 10SM CLR 06/05 A3001 RMK AO2 T00570047 Follow  on AV Mobile USAF Academy Bullseye Aux Airstrip 118.325 719-683-3346
K0COFAA ID 0CO, AWOS-3, K0CO 201035Z AUTO 33013G16KT M1/4SM HZ OVC001 M03/M08 A3033 RMK AO2 Follow K0CO on AV Mobile EMPIRE 134.325
KEIKFAA ID EIK, AWOS-3, KEIK 201036Z AUTO 28004KT 10SM CLR 06/05 A3002 RMK AO2 T00600052 Follow KEIK on AV Mobile Erie Municipal Airport 133.825 303-604-4339
KFCSFAA ID FCS, KFCS 200958Z AUTO 30006KT 10SM OVC100 09/03 A3005 RMK AO2 SLP149 T00860028 $ Follow KFCS on AV Mobile Fort Carson
KFCLICAO ID KFCL Fort Collins Supplementary Aviation Weather Reporting Station
KFNLFAA ID FNL, AWOS-3, KFNL 201035Z AUTO 35007KT 10SM CLR 05/03 A3004 RMK AO1 Follow KFNL on AV Mobile Fort Collins/Loveland, Fort Collins-Loveland Municipal Airport 135.075 970-669-9187
KFMMFAA ID FMM, AWOS-3, KFMM 201035Z AUTO 13003KT 10SM CLR 05/03 A3003 RMK AO2 T00500034 Follow KFMM on AV Mobile Fort Morgan Municipal Airport 132.950 970-867-4823
KGNBFAA ID GNB, AWOS-1 Granby-Grand County Airport 119.925 970-887-1803
KGJTFAA ID GJT, ASOS, KGJT 200953Z AUTO 10003KT 10SM CLR 07/04 A3008 Follow KGJT on AV Mobile GRAND JUNCTION WALKER FIELD 118.550 970-245-7881
KGXYFAA ID GXY, AWOS-3, KGXY 201035Z AUTO 00000KT 10SM CLR 05/02 A3003 RMK AO1 Follow KGXY on AV Mobile Greeley, Greeley-Weld County Airport 135.175 970-352-3511
K2V9ICAO ID K2V9 Gunnison Aviation Weather Reporting Station
KGUCFAA ID GUC, AWOS-3, KGUC 201035Z AUTO 00000KT 10SM CLR 01/M03 A3022 RMK AO1 Follow KGUC on AV Mobile Gunnison, Gunnison-Crested Butte Regional Airport 135.075 970-641-3240
KHDNFAA ID HDN, AWOS-3, KHDN 201035Z AUTO 11011KT 10SM CLR 03/00 A3016 RMK AO1 Follow KHDN on AV Mobile Hayden, Yampa Valley Airport 119.275 970-276-3690
KHEQFAA ID HEQ, AWOS-3, KHEQ 201035Z AUTO 27006KT 10SM CLR 03/01 A3001 RMK AO2 Follow KHEQ on AV Mobile Holyoke Airport 119.275 970-854-3679
K20VFAA ID 20V, AWOS-3, K20V 201035Z AUTO 00000KT 10SM CLR 01/00 A3020 RMK AO2 Follow K20V on AV Mobile Kremmling, Mc Elroy Airfield 118.425 970-724-9659
KLHXFAA ID LHX, ASOS, KLHX 200953Z AUTO 33012KT 10SM CLR 13/06 A2997 RMK AO2 SLP097 T01280056 $ Follow KLHX on AV Mobile LA JUNTA MUNICIPAL AIRPORT 135.525 719-384-5961
KVTPFAA ID VTP, AWOS-3, KVTP 201033Z AUTO 22005KT 7SM SCT017 BKN025 OVC040 01/00 A3020 RMK AO2 Follow KVTP on AV Mobile La Veta Mountain, La Veta Pass 119.925 719-587-3120
KLAAFAA ID LAA, ASOS, KLAA 200953Z AUTO 21005KT 10SM CLR 10/05 A2991 RMK AO2 SLP089 T01000050 Follow KLAA on AV Mobile LAMAR MUNICIPAL AIRPORT 135.625 719-336-3854
KLXVFAA ID LXV, ASOS, KLXV 201000Z AUTO 00000KT 10SM SCT008 M01/M02 A3023 Follow KLXV on AV Mobile LEADVILLE LAKE CO 118.375 719-486-2735
KLICFAA ID LIC, ASOS, KLIC 200955Z AUTO 29003KT 10SM CLR 05/04 A3003 RMK AO2 SLP128 T00500039 Follow KLIC on AV Mobile LIMON MUNICIPAL AIRPORT 121.125 719-775-0515
KLMOFAA ID LMO, AWOS-3, KLMO 201035Z AUTO 34003KT 10SM CLR 05/04 A3004 RMK AO2 T00500038 Follow KLMO on AV Mobile Vance Brand Airport 120.000 303-684-7545
KEEOFAA ID EEO, ASOS, KEEO 200953Z AUTO 06004KT 10SM CLR 02/01 A3014 RMK AO2 SLP173 T00220006 Follow KEEO on AV Mobile MEEKER AIRPORT 135.525 970-878-5036
KMYPFAA ID MYP, AWOS-3, KMYP 201035Z AUTO 26012KT 1/4SM FZFG OVC001 M01/M02 A3038 RMK AO2 Follow KMYP on AV Mobile Salida Mountain, Monarch Pass 124.175 719-539-4436
KMTJFAA ID MTJ, ASOS, KMTJ 200953Z AUTO 16005KT 10SM CLR 06/03 A3015 RMK AO2 SLP162 T00560033 Follow KMTJ on AV Mobile MONTROSE REGIONAL AIRPORT 135.225 970-249-1534
KMNHFAA ID MNH, AWOS-3, KMNH 201035Z AUTO 24006KT 10SM SCT120 03/01 A3008 RMK AO2 Follow KMNH on AV Mobile Elbert Mountain, Monument Pass 134.375 303-648-3479
K3MWFAA ID 3MW, AWOS-3, K3MW 201036Z AUTO 29005KT 10SM OVC004 02/00 A3028 RMK AO2 PWINO Follow K3MW on AV Mobile Mount Werner 127.125 970-871-5640
KCRVICAO ID KCRV Nederland Mountain, Corona Pass
KAIBFAA ID AIB, AWOS-3, KAIB 201035Z AUTO 10006KT 10SM 04/02 A3017 RMK AO2 Follow KAIB on AV Mobile Hopkins Field Airport 132.525 970-864-2325
KPSOFAA ID PSO, AWOS-3, KPSO 201035Z AUTO 00000KT 10SM CLR 03/01 A3017 RMK AO2 T00260011 Follow KPSO on AV Mobile Stevens Field Airport 127.175 970-731-0365
KPEFICAO ID KPEF Peterson Air Force Base
KPUXICAO ID KPUX Pueblo NEXRAD
KPUBFAA ID PUB, ASOS, KPUB 200953Z AUTO 29008KT 10SM BKN095 12/06 A3001 Follow KPUB on AV Mobile PUEBLO MEMORIAL AIRPORT 125.250 719-948-2803
K1V1ICAO ID K1V1 Rifle Aviation Weather Reporting Station
KRILFAA ID RIL, ASOS, KRIL 200953Z AUTO 00000KT 10SM CLR 04/02 A3013 RMK AO2 SLP173 T00440017 Follow KRIL on AV Mobile RIFLE GARFIELD COUNTY RGNL 135.275 970-625-2206
K04VFAA ID 04V, AWOS-3, K04V 201034Z AUTO 33011KT 10SM SCT080 07/01 A3015 RMK AO2 Follow K04V on AV Mobile Saguache, Saguache Municipal Airport 118.625 719-655-2229
KS29ICAO ID KS29 Salida
KANKFAA ID ANK, AWOS-3, KANK 201035Z AUTO 22003KT 10SM CLR 06/04 A3023 RMK AO1 T00590042 Follow KANK on AV Mobile Harriet Alexander Field Airport 133.850 719-539-5268
KSPDICAO ID KSPD, KSPD 200956Z AUTO 20016G22KT 12/08 A2998 RMK AO1 SLP102 T01170083 Follow KSPD on AV Mobile SPRINGFIELD COMANCHE NATL
KSBSFAA ID SBS, AWOS-3, KSBS 201035Z AUTO 00000KT 10SM CLR 02/00 A3016 RMK AO1 T00210003 Follow KSBS on AV Mobile Steamboat Springs 118.325 970-879-7794
KSTKFAA ID STK, AWOS-3, KSTK 201030Z AUTO 22006KT 10SM CLR 03/02 A3000 RMK AO2 Follow KSTK on AV Mobile Sterling Municipal Airport 118.525 970-526-3009
K5SMFAA ID 5SM, AWOS-3, K5SM 201038Z AUTO 00000KT 10SM CLR 02/00 A3030 RMK AO2 Follow K5SM on AV Mobile Sunlight 126.075 970-384-3380
KTEXFAA ID TEX, AWOS-3, KTEX 201037Z AUTO 00000KT 10SM SCT040 BKN050 02/00 A3022 RMK AO2 Follow KTEX on AV Mobile Telluride, Telluride Regional Airport 118.325 970-728-1534
KTADFAA ID TAD, ASOS, KTAD 200954Z AUTO 28008KT 10SM -RA FEW060 OVC085 10/07 A3005 RMK AO2 RAB51 SLP115 P0000 T01000067 Follow KTAD on AV Mobile Trinidad, Perry Stokes Airport 119.025 719-845-1156
K33VFAA ID 33V, AWOS-3, K33V 201036Z AUTO 13006KT 10SM OVC075 M01/M02 A3017 RMK AO2 Follow K33V on AV Mobile WALDEN 118.625 970-723-4513
4V1FAA ID 4V1, AWOS-3, K2V5 201105Z AUTO 25004KT 10SM CLR 06/05 A3001 RMK AO2 T00570047 Follow  on AV Mobile Spanish Peaks Airfield 123.600 719-738-1053
K4BMFAA ID 4BM, AWOS-3, K4BM 201034Z AUTO 31003KT 2SM BR CLR M01/M01 A3028 RMK AO2 VIS 3/4V5 Follow K4BM on AV Mobile Wilkerson Pass 132.3 303-512-4418
KC96ICAO ID KC96 Winter Park Resort
KCPWFAA ID CPW, AWOS-3, KCPW 201039Z AUTO 00000KT 10SM SCT110 M02/M02 A3029 RMK AO2 Follow KCPW on AV Mobile Pagosa Springs, Wolf Creek Pass 121.125 970-264-2180
K2V5FAA ID 2V5, AWOS-3, K2V5 201055Z AUTO 00000KT 10SM CLR 06/05 A3001 RMK AO2 T00560050 Follow K2V5 on AV Mobile Wray Municipal Airport 118.250 970-332-5930

Click on the AV Mobile icon AV Mobile icon by any station to follow that AWOS feed on AirportView.net Mobile.

Legend: Commercial service airport with AWOS Commercial Airport AWOSNon-Commercial service airport with AWOS Non-Commercial Airport AWOS
Airport AWOS - Click symbol for weather report Fort Morgan Municipal Airport KFMM 201035Z AUTO 13003KT 10SM CLR 05/03 A3003 RMK AO2 T00500034 Hopkins Field Airport KAIB 201035Z AUTO 10006KT 10SM 04/02 A3017 RMK AO2 Telluride, Telluride Regional Airport KTEX 201037Z AUTO 00000KT 10SM SCT040 BKN050 02/00 A3022 RMK AO2 Greeley, Greeley-Weld County Airport KGXY 201035Z AUTO 00000KT 10SM CLR 05/02 A3003 RMK AO1 Front Range Airport KFTG 191947Z 08012KT 20SM SCT075 OVC110 19/04 A3007 Rocky Mountain Metro Airport KBJC 201035Z AUTO 34007KT 10SM CLR 08/04 A3003 DENVER CENTENNIAL AIRPORT KAPA 200953Z 23008KT 10SM FEW100 SCT200 08/03 A3005 RMK AO2 SLP140 T00830033 DENVER INTERNATIONAL AIRPORT KDEN 200953Z 21012KT 10SM FEW060 SCT120 BKN220 09/05 A3003 Fort Collins/Loveland, Fort Collins-Loveland Municipal Airport KFNL 201035Z AUTO 35007KT 10SM CLR 05/03 A3004 RMK AO1 Boulder Municipal Airport KBDU 201036Z AUTO 00000KT 10SM CLR 07/06 A3003 RMK AO2 Vance Brand Airport KLMO 201035Z AUTO 34003KT 10SM CLR 05/04 A3004 RMK AO2 T00500038 Sterling Municipal Airport KSTK 201030Z AUTO 22006KT 10SM CLR 03/02 A3000 RMK AO2 Holyoke Airport KHEQ 201035Z AUTO 27006KT 10SM CLR 03/01 A3001 RMK AO2 COLORADO PLAINS REGIONAL KAKO 200953Z AUTO 25008KT 10SM CLR 06/03 A3001 RMK AO2 SLP139 T00560028 Kit Carson County Airport KITR 200953Z AUTO 04007KT 7SM CLR 08/07 A2999 RMK AO2 SLP124 T00830067 LIMON MUNICIPAL AIRPORT KLIC 200955Z AUTO 29003KT 10SM CLR 05/04 A3003 RMK AO2 SLP128 T00500039 COLORADO SPRINGS MUNI KCOS 200954Z 34008KT 10SM SCT090 BKN120 BKN220 10/02 A3006 LAMAR MUNICIPAL AIRPORT KLAA 200953Z AUTO 21005KT 10SM CLR 10/05 A2991 RMK AO2 SLP089 T01000050 LA JUNTA MUNICIPAL AIRPORT KLHX 200953Z AUTO 33012KT 10SM CLR 13/06 A2997 RMK AO2 SLP097 T01280056 $ Trinidad, Perry Stokes Airport KTAD 200954Z AUTO 28008KT 10SM -RA FEW060 OVC085 10/07 A3005 RMK AO2 RAB51 SLP115 P0000 T01000067 PUEBLO MEMORIAL AIRPORT KPUB 200953Z AUTO 29008KT 10SM BKN095 12/06 A3001 CANON CITY 1V6 SAN LUIS VALLEY REGIONAL KALS 200952Z AUTO 13006KT 10SM BKN055 OVC075 08/03 A3014 Saguache, Saguache Municipal Airport K04V 201034Z AUTO 33011KT 10SM SCT080 07/01 A3015 RMK AO2 Granby-Grand County Airport KGNB WALDEN 33V Steamboat Springs KSBS 201035Z AUTO 00000KT 10SM CLR 02/00 A3016 RMK AO1 T00210003 Hayden, Yampa Valley Airport KHDN 201035Z AUTO 11011KT 10SM CLR 03/00 A3016 RMK AO1 Kremmling, Mc Elroy Airfield K20V 201035Z AUTO 00000KT 10SM CLR 01/00 A3020 RMK AO2 LEADVILLE LAKE CO KLXV 201000Z AUTO 00000KT 10SM SCT008 M01/M02 A3023 Eagle County Regional KEGE 201035Z AUTO 07004KT 10SM OVC070 04/03 A3018 CRAIG MOFFAT AIRPORT KCAG 200953Z AUTO 00000KT 10SM CLR 01/00 A3014 MEEKER AIRPORT KEEO 200953Z AUTO 06004KT 10SM CLR 02/01 A3014 RMK AO2 SLP173 T00220006 ASPEN-PITKIN COUNTY AIRPORT KASE 200953Z AUTO 17005KT 10SM BKN037 03/M01 A3017 Gunnison, Gunnison-Crested Butte Regional Airport KGUC 201035Z AUTO 00000KT 10SM CLR 01/M03 A3022 RMK AO1 DURANGO-LA PLATA COUNTY AIRPORT  KDRO 200953Z AUTO 00000KT 10SM CLR 03/01 A3013 RMK AO2 SLP165 T00330006 Stevens Field Airport KPSO 201035Z AUTO 00000KT 10SM CLR 03/01 A3017 RMK AO2 T00260011 CORTEZ MONTEZUMA COUNTY AIRPORT  KCEZ 200953Z AUTO 11005KT 10SM CLR 03/00 A3013 RMK AO2 SLP163 T00280000 MONTROSE REGIONAL AIRPORT KMTJ 200953Z AUTO 16005KT 10SM CLR 06/03 A3015 RMK AO2 SLP162 T00560033 RIFLE GARFIELD COUNTY RGNL KRIL 200953Z AUTO 00000KT 10SM CLR 04/02 A3013 RMK AO2 SLP173 T00440017 GRAND JUNCTION WALKER FIELD KGJT 200953Z AUTO 10003KT 10SM CLR 07/04 A3008 Blake Field Airport KAJZ 201035Z AUTO 05005KT 10SM CLR 07/04 A3013 RMK AO2 T00670036 Central Colorado Regional Airport KAEJ 201035Z AUTO 28008KT 10SM CLR 03/01 A3017 RMK AO2 T00280010 Harriet Alexander Field Airport KANK 201035Z AUTO 22003KT 10SM CLR 06/04 A3023 RMK AO1 T00590042 Erie Municipal Airport KEIK 201036Z AUTO 28004KT 10SM CLR 06/05 A3002 RMK AO2 T00600052 Wray Municipal Airport K2V5 201055Z AUTO 00000KT 10SM CLR 06/05 A3001 RMK AO2 T00560050
Legend: High Mountain AWOS Mountain Pass AWOS
Mountain Pass AWOS - Click symbol for weather report Pagosa Springs, Wolf Creek Pass KCPW 201039Z AUTO 00000KT 10SM SCT110 M02/M02 A3029 RMK AO2 Saguache, Saguache Municipal Airport K04V 201034Z AUTO 33011KT 10SM SCT080 07/01 A3015 RMK AO2 Kremmling, Mc Elroy Airfield K20V 201035Z AUTO 00000KT 10SM CLR 01/00 A3020 RMK AO2 La Veta Mountain, La Veta Pass KVTP 201033Z AUTO 22005KT 7SM SCT017 BKN025 OVC040 01/00 A3020 RMK AO2 Salida Mountain, Monarch Pass KMYP 201035Z AUTO 26012KT 1/4SM FZFG OVC001 M01/M02 A3038 RMK AO2 Cottonwood Pass K7BM 201035Z AUTO 00000KT 10SM CLR 03/00 A3022 RMK AO2 Elbert Mountain, Monument Pass KMNH 201035Z AUTO 24006KT 10SM SCT120 03/01 A3008 RMK AO2 Wilkerson Pass K4BM 201034Z AUTO 31003KT 2SM BR CLR M01/M01 A3028 RMK AO2 VIS 3/4V5 Copper Mountain, Red Cliff Pass KCCU 201036Z AUTO 26012KT 10SM SCT002 SCT010 OVC021 01/M01 A3031 RMK AO2 EMPIRE 0CO Sunlight K5SM 201038Z AUTO 00000KT 10SM CLR 02/00 A3030 RMK AO2 Mount Werner K3MW 201036Z AUTO 29005KT 10SM OVC004 02/00 A3028 RMK AO2 PWINO
Garmin aera 796 $1999 at Avionics Specialists LLC
Bose A20 Aviation Headsets $995 at Avionics Specialists LLC